createdAt,value
2017-07-17T00:01:15.897Z,4.13
2017-07-17T00:03:44.134Z,4.60
2017-07-17T00:06:11.610Z,4.83
2017-07-17T00:08:39.105Z,4.27
2017-07-17T00:11:06.581Z,4.00
2017-07-17T00:13:34.054Z,4.10
2017-07-17T00:16:01.873Z,4.30
2017-07-17T00:18:29.345Z,4.27
2017-07-17T00:20:56.870Z,4.20
2017-07-17T00:23:25.136Z,4.73
2017-07-17T00:25:52.614Z,5.70
2017-07-17T00:28:20.853Z,6.17
2017-07-17T00:30:48.358Z,4.43
2017-07-17T00:33:15.833Z,4.93
2017-07-17T00:35:43.308Z,4.47
2017-07-17T00:38:10.892Z,5.07
2017-07-17T00:40:38.408Z,4.57
2017-07-17T00:43:05.877Z,4.20
2017-07-17T00:45:33.364Z,3.73
2017-07-17T00:48:00.833Z,3.83
2017-07-17T00:50:29.074Z,5.07
2017-07-17T00:52:56.569Z,4.50
2017-07-17T00:55:24.817Z,4.40
2017-07-17T00:57:52.309Z,4.10
2017-07-17T01:00:20.565Z,3.80
2017-07-17T01:02:48.037Z,4.63
2017-07-17T01:05:16.279Z,3.70
2017-07-17T01:07:43.774Z,4.00
2017-07-17T01:10:12.018Z,5.07
2017-07-17T01:12:39.490Z,4.90
2017-07-17T01:15:06.981Z,4.73
2017-07-17T01:17:34.453Z,4.03
2017-07-17T01:20:01.924Z,4.20
2017-07-17T01:22:29.424Z,5.60
2017-07-17T01:24:56.909Z,4.90
2017-07-17T01:27:24.381Z,4.80
2017-07-17T01:29:52.221Z,6.17
2017-07-17T01:32:20.486Z,5.20
2017-07-17T01:34:48.725Z,5.70
2017-07-17T01:37:16.229Z,5.10
2017-07-17T01:39:44.467Z,4.73
2017-07-17T01:42:11.942Z,5.23
2017-07-17T01:44:40.209Z,6.10
2017-07-17T01:47:07.687Z,5.73
2017-07-17T01:49:35.925Z,5.23
2017-07-17T01:52:03.417Z,5.70
2017-07-17T01:54:31.653Z,6.40
2017-07-17T01:56:59.126Z,5.63
2017-07-17T01:59:26.619Z,6.40
2017-07-17T02:01:54.094Z,6.10
2017-07-17T02:04:21.565Z,5.97
2017-07-17T02:06:49.061Z,5.80
2017-07-17T02:09:17.317Z,5.37
2017-07-17T02:11:44.793Z,5.87
2017-07-17T02:14:12.285Z,5.87
2017-07-17T02:16:39.763Z,6.73
2017-07-17T02:19:07.452Z,6.67
2017-07-17T02:21:35.037Z,6.57
2017-07-17T02:24:03.273Z,6.67
2017-07-17T02:26:30.746Z,6.00
2017-07-17T02:28:58.241Z,5.97
2017-07-17T02:31:26.477Z,5.63
2017-07-17T02:33:53.946Z,5.30
2017-07-17T02:36:21.437Z,5.20
2017-07-17T02:38:48.913Z,5.07
2017-07-17T02:41:16.388Z,4.97
2017-07-17T02:43:43.883Z,5.30
2017-07-17T02:46:11.352Z,5.17
2017-07-17T02:48:39.590Z,7.67
2017-07-17T02:51:07.089Z,6.07
2017-07-17T02:53:35.325Z,5.87
2017-07-17T02:56:02.813Z,5.57
2017-07-17T02:58:31.075Z,6.80
2017-07-17T03:00:58.545Z,6.20
2017-07-17T03:03:26.793Z,6.77
2017-07-17T03:05:54.302Z,7.20
2017-07-17T03:08:21.793Z,6.73
2017-07-17T03:10:49.265Z,6.87
2017-07-17T03:13:16.766Z,6.40
2017-07-17T03:15:44.238Z,7.00
2017-07-17T03:18:11.714Z,7.90
2017-07-17T03:20:39.209Z,7.00
2017-07-17T03:23:06.685Z,7.00
2017-07-17T03:25:34.921Z,5.40
2017-07-17T03:28:02.417Z,5.00
2017-07-17T03:30:30.652Z,5.93
2017-07-17T03:32:58.125Z,5.30
2017-07-17T03:35:25.625Z,5.67
2017-07-17T03:37:53.107Z,5.20
2017-07-17T03:40:20.581Z,5.67
2017-07-17T03:42:48.076Z,6.27
2017-07-17T03:45:16.318Z,5.50
2017-07-17T03:47:43.789Z,6.27
2017-07-17T03:50:11.511Z,5.60
2017-07-17T03:52:38.981Z,5.90
2017-07-17T03:55:06.449Z,6.23
2017-07-17T03:57:33.953Z,5.00
2017-07-17T04:00:01.430Z,6.20
2017-07-17T04:02:28.933Z,5.60
2017-07-17T04:04:56.425Z,6.10
2017-07-17T04:07:23.897Z,6.63
2017-07-17T04:09:51.373Z,6.20
2017-07-17T04:12:18.866Z,6.07
2017-07-17T04:14:46.484Z,6.30
2017-07-17T04:17:13.964Z,6.67
2017-07-17T04:19:41.449Z,5.53
2017-07-17T04:22:08.917Z,7.00
2017-07-17T04:24:37.161Z,7.07
2017-07-17T04:27:05.490Z,6.23
2017-07-17T04:29:32.965Z,6.20
2017-07-17T04:32:00.730Z,7.57
2017-07-17T04:34:28.226Z,5.97
2017-07-17T04:36:55.701Z,7.30
2017-07-17T04:39:24.230Z,6.50
2017-07-17T04:41:52.094Z,7.90
2017-07-17T04:44:19.865Z,7.30
2017-07-17T04:46:47.354Z,5.90
2017-07-17T04:49:15.077Z,6.23
2017-07-17T04:51:42.552Z,7.33
2017-07-17T04:54:10.021Z,6.63
2017-07-17T04:56:37.517Z,6.00
2017-07-17T04:59:05.753Z,5.73
2017-07-17T05:01:33.225Z,6.50
2017-07-17T05:04:00.718Z,6.20
2017-07-17T05:06:28.255Z,6.33
2017-07-17T05:08:56.496Z,6.60
2017-07-17T05:11:23.993Z,6.47
2017-07-17T05:13:52.231Z,6.50
2017-07-17T05:16:19.705Z,6.30
2017-07-17T05:18:47.205Z,4.73
2017-07-17T05:21:14.681Z,3.83
2017-07-17T05:23:42.169Z,4.20
2017-07-17T05:26:09.660Z,4.43
2017-07-17T05:28:37.897Z,3.60
2017-07-17T05:31:05.481Z,4.00
2017-07-17T05:33:33.742Z,4.10
2017-07-17T05:36:01.383Z,3.60
2017-07-17T05:38:28.858Z,3.57
2017-07-17T05:40:56.349Z,3.33
2017-07-17T05:43:23.818Z,3.97
2017-07-17T05:45:51.294Z,3.70
2017-07-17T05:48:18.797Z,3.10
2017-07-17T05:50:46.362Z,3.47
2017-07-17T05:53:14.609Z,3.60
2017-07-17T05:55:42.102Z,3.10
2017-07-17T05:58:10.620Z,3.60
2017-07-17T06:00:38.097Z,3.73
2017-07-17T06:03:05.601Z,3.57
2017-07-17T06:05:33.842Z,3.83
2017-07-17T06:08:01.313Z,3.30
2017-07-17T06:10:28.806Z,3.80
2017-07-17T06:12:56.282Z,3.10
2017-07-17T06:15:23.756Z,2.47
2017-07-17T06:17:51.261Z,2.83
2017-07-17T06:20:19.497Z,3.30
2017-07-17T06:22:46.965Z,4.27
2017-07-17T06:25:14.456Z,2.80
2017-07-17T06:27:41.929Z,3.00
2017-07-17T06:30:09.409Z,3.47
2017-07-17T06:32:36.917Z,3.20
2017-07-17T06:35:05.154Z,3.73
2017-07-17T06:37:32.629Z,3.07
2017-07-17T06:40:00.509Z,3.80
2017-07-17T06:42:28.749Z,3.13
2017-07-17T06:44:56.224Z,2.97
2017-07-17T06:47:23.718Z,2.90
2017-07-17T06:49:51.195Z,2.50
2017-07-17T06:52:18.717Z,4.00
2017-07-17T06:54:46.982Z,3.20
2017-07-17T06:57:15.333Z,3.13
2017-07-17T06:59:42.806Z,3.83
2017-07-17T07:02:10.298Z,3.03
2017-07-17T07:04:37.776Z,2.80
2017-07-17T07:07:05.253Z,3.37
2017-07-17T07:09:32.746Z,3.50
2017-07-17T07:12:00.461Z,3.20
2017-07-17T07:14:27.974Z,3.10
2017-07-17T07:16:56.248Z,3.53
2017-07-17T07:19:24.485Z,3.30
2017-07-17T07:21:51.954Z,2.90
2017-07-17T07:24:19.450Z,2.73
2017-07-17T07:26:46.929Z,3.20
2017-07-17T07:29:14.399Z,3.30
2017-07-17T07:31:41.889Z,2.63
2017-07-17T07:34:09.625Z,3.00
2017-07-17T07:36:37.107Z,2.63
2017-07-17T07:39:04.601Z,3.23
2017-07-17T07:41:32.077Z,3.27
2017-07-17T07:43:59.553Z,2.77
2017-07-17T07:46:27.046Z,2.80
2017-07-17T07:48:54.521Z,3.23
2017-07-17T07:51:22.760Z,3.27
2017-07-17T07:53:50.252Z,3.00
2017-07-17T07:56:18.493Z,3.00
2017-07-17T07:58:45.994Z,2.50
2017-07-17T08:01:14.254Z,2.70
2017-07-17T08:03:42.497Z,2.50
2017-07-17T08:06:09.974Z,1.83
2017-07-17T08:08:37.473Z,2.50
2017-07-17T08:11:04.946Z,2.20
2017-07-17T08:13:32.465Z,2.77
2017-07-17T08:16:00.779Z,2.40
2017-07-17T08:18:28.250Z,2.77
2017-07-17T08:20:55.721Z,2.13
2017-07-17T08:23:23.213Z,2.40
2017-07-17T08:25:51.450Z,2.17
2017-07-17T08:28:18.922Z,2.73
2017-07-17T08:30:46.425Z,2.37
2017-07-17T08:33:13.932Z,2.27
2017-07-17T08:35:41.438Z,1.77
2017-07-17T08:38:08.980Z,1.83
2017-07-17T08:40:37.218Z,1.90
2017-07-17T08:43:04.686Z,1.80
2017-07-17T08:45:32.193Z,1.87
2017-07-17T08:47:59.665Z,2.20
2017-07-17T08:50:27.145Z,1.90
2017-07-17T08:52:54.637Z,1.73
2017-07-17T08:55:22.874Z,1.77
2017-07-17T08:57:50.345Z,2.03
2017-07-17T09:00:17.845Z,2.03
2017-07-17T09:02:45.644Z,2.13
2017-07-17T09:05:13.117Z,2.13
2017-07-17T09:07:40.629Z,1.63
2017-07-17T09:10:08.099Z,1.87
2017-07-17T09:12:35.621Z,1.87
2017-07-17T09:15:04.222Z,1.63
2017-07-17T09:17:31.697Z,1.90
2017-07-17T09:19:59.237Z,1.97
2017-07-17T09:22:26.745Z,1.30
2017-07-17T09:24:54.212Z,1.53
2017-07-17T09:27:21.685Z,1.37
2017-07-17T09:29:49.953Z,1.27
2017-07-17T09:32:17.426Z,1.60
2017-07-17T09:34:44.899Z,1.50
2017-07-17T09:37:12.393Z,1.87
2017-07-17T09:39:39.898Z,1.77
2017-07-17T09:42:07.381Z,1.80
2017-07-17T09:44:34.873Z,1.53
2017-07-17T09:47:02.346Z,1.90
2017-07-17T09:49:29.821Z,1.27
2017-07-17T09:51:58.082Z,1.70
2017-07-17T09:54:25.562Z,1.50
2017-07-17T09:56:53.154Z,1.73
2017-07-17T09:59:20.659Z,1.60
2017-07-17T10:01:48.141Z,1.57
2017-07-17T10:04:15.615Z,1.60
2017-07-17T10:06:43.110Z,1.77
2017-07-17T10:09:10.581Z,1.57
2017-07-17T10:11:38.269Z,1.23
2017-07-17T10:14:05.818Z,1.33
2017-07-17T10:16:34.057Z,1.77
2017-07-17T10:19:01.533Z,1.70
2017-07-17T10:21:29.025Z,1.50
2017-07-17T10:23:56.564Z,1.30
2017-07-17T10:26:24.808Z,1.73
2017-07-17T10:28:52.601Z,1.50
2017-07-17T10:31:20.841Z,1.57
2017-07-17T10:33:48.593Z,1.47
2017-07-17T10:36:16.355Z,1.30
2017-07-17T10:38:43.829Z,1.77
2017-07-17T10:41:11.305Z,1.10
2017-07-17T10:43:38.798Z,1.37
2017-07-17T10:46:06.341Z,1.20
2017-07-17T10:48:34.583Z,1.20
2017-07-17T10:51:02.077Z,1.10
2017-07-17T10:53:30.310Z,1.47
2017-07-17T10:55:57.794Z,1.77
2017-07-17T10:58:26.285Z,1.60
2017-07-17T11:00:54.525Z,1.30
2017-07-17T11:03:21.997Z,1.10
2017-07-17T11:05:49.488Z,1.60
2017-07-17T11:08:16.961Z,1.50
2017-07-17T11:10:44.433Z,1.23
2017-07-17T11:13:11.924Z,1.57
2017-07-17T11:15:39.398Z,1.60
2017-07-17T11:18:07.681Z,1.60
2017-07-17T11:20:35.201Z,1.50
2017-07-17T11:23:02.673Z,1.60
2017-07-17T11:25:30.146Z,1.10
2017-07-17T11:27:58.406Z,1.30
2017-07-17T11:30:25.881Z,1.40
2017-07-17T11:32:54.168Z,2.00
2017-07-17T11:35:21.834Z,1.63
2017-07-17T11:37:49.306Z,1.57
2017-07-17T11:40:16.838Z,2.00
2017-07-17T11:42:45.325Z,1.70
2017-07-17T11:45:12.878Z,2.13
2017-07-17T12:00:12.813Z,2.17
2017-07-17T12:02:40.577Z,1.80
2017-07-17T12:07:34.741Z,1.67
2017-07-17T12:10:02.239Z,1.87
2017-07-17T12:12:29.718Z,1.70
2017-07-17T12:14:57.418Z,2.13
2017-07-17T12:17:25.519Z,1.87
2017-07-17T12:19:52.994Z,1.60
2017-07-17T12:22:20.742Z,1.87
2017-07-17T12:24:48.253Z,2.10
2017-07-17T12:27:16.498Z,2.17
2017-07-17T12:29:43.975Z,3.90
2017-07-17T12:32:12.246Z,2.30
2017-07-17T12:34:39.718Z,1.60
2017-07-17T12:37:07.958Z,1.37
2017-07-17T12:39:35.449Z,2.00
2017-07-17T12:42:03.689Z,1.73
2017-07-17T12:44:31.161Z,2.33
2017-07-17T12:46:59.045Z,1.77
2017-07-17T12:49:27.282Z,1.47
2017-07-17T12:51:55.417Z,1.93
2017-07-17T12:54:22.909Z,1.70
2017-07-17T12:56:50.389Z,1.83
2017-07-17T12:59:17.865Z,2.00
2017-07-17T13:01:45.365Z,1.87
2017-07-17T13:04:12.843Z,1.60
2017-07-17T13:06:40.325Z,2.27
2017-07-17T13:09:07.842Z,2.20
2017-07-17T13:11:35.313Z,2.20
2017-07-17T13:14:02.786Z,2.43
2017-07-17T13:16:30.285Z,1.77
2017-07-17T13:18:57.753Z,1.57
2017-07-17T13:21:25.225Z,2.20
2017-07-17T13:23:52.717Z,2.87
2017-07-17T13:26:20.188Z,2.00
2017-07-17T13:28:48.433Z,2.23
2017-07-17T13:31:15.970Z,2.30
2017-07-17T13:33:43.737Z,2.63
2017-07-17T13:36:11.502Z,2.00
2017-07-17T13:38:39.013Z,2.47
2017-07-17T13:41:07.254Z,2.30
2017-07-17T13:43:34.742Z,25.87
2017-07-17T13:46:02.233Z,3.87
2017-07-17T13:48:29.710Z,2.10
2017-07-17T13:50:57.185Z,2.10
2017-07-17T13:53:24.889Z,1.97
2017-07-17T13:55:53.126Z,1.90
2017-07-17T13:58:20.866Z,1.70
2017-07-17T14:00:48.370Z,2.50
2017-07-17T14:03:15.845Z,2.30
2017-07-17T14:05:44.082Z,1.90
2017-07-17T14:08:11.574Z,2.33
2017-07-17T14:10:39.812Z,1.90
2017-07-17T14:13:07.281Z,1.93
2017-07-17T14:15:35.005Z,2.10
2017-07-17T14:18:02.475Z,2.53
2017-07-17T14:20:29.945Z,2.50
2017-07-17T14:22:57.434Z,2.17
2017-07-17T14:25:25.674Z,2.50
2017-07-17T14:27:53.165Z,2.63
2017-07-17T14:30:21.438Z,2.70
2017-07-17T14:32:50.825Z,2.07
2017-07-17T14:35:18.345Z,3.00
2017-07-17T14:37:45.838Z,2.87
2017-07-17T14:40:13.311Z,2.17
2017-07-17T14:42:41.555Z,3.00
2017-07-17T14:45:09.063Z,2.13
2017-07-17T14:47:36.534Z,2.60
2017-07-17T14:50:04.062Z,2.60
2017-07-17T14:52:32.329Z,2.57
2017-07-17T14:55:00.045Z,2.57
2017-07-17T14:57:27.557Z,2.10
2017-07-17T14:59:55.814Z,2.70
2017-07-17T15:02:23.330Z,2.37
2017-07-17T15:04:50.805Z,2.27
2017-07-17T15:07:19.164Z,2.70
2017-07-17T15:09:46.941Z,2.50
2017-07-17T15:12:14.563Z,2.50
2017-07-17T15:14:42.601Z,2.60
2017-07-17T15:17:10.342Z,1.70
2017-07-17T15:19:37.833Z,2.33
2017-07-17T15:22:05.329Z,2.93
2017-07-17T15:24:32.806Z,2.60
2017-07-17T15:27:00.278Z,2.23
2017-07-17T15:29:27.770Z,2.20
2017-07-17T15:31:56.017Z,2.20
2017-07-17T15:34:23.495Z,2.50
2017-07-17T15:36:51.906Z,2.70
2017-07-17T15:39:19.689Z,2.50
2017-07-17T15:41:47.161Z,2.57
2017-07-17T15:44:14.662Z,2.60
2017-07-17T15:46:42.897Z,2.23
2017-07-17T15:49:12.230Z,2.20
2017-07-17T15:51:39.895Z,2.57
2017-07-17T15:54:08.141Z,2.30
2017-07-17T15:56:35.613Z,2.77
2017-07-17T15:59:03.105Z,2.93
2017-07-17T16:01:30.574Z,2.53
2017-07-17T16:03:58.041Z,2.30
2017-07-17T16:06:25.538Z,2.60
2017-07-17T16:08:53.262Z,2.13
2017-07-17T16:11:20.735Z,2.70
2017-07-17T16:13:48.233Z,2.50
2017-07-17T16:16:16.471Z,2.70
2017-07-17T16:18:43.941Z,2.43
2017-07-17T16:21:11.433Z,2.37
2017-07-17T16:23:39.697Z,2.10
2017-07-17T16:26:07.938Z,2.17
2017-07-17T16:28:35.448Z,2.73
2017-07-17T16:31:02.932Z,2.43
2017-07-17T16:33:30.442Z,2.40
2017-07-17T16:35:58.720Z,2.70
2017-07-17T16:38:26.962Z,2.30
2017-07-17T16:40:54.438Z,2.73
2017-07-17T16:43:21.929Z,2.40
2017-07-17T16:45:49.466Z,2.40
2017-07-17T16:48:17.703Z,2.60
2017-07-17T16:50:45.199Z,2.40
2017-07-17T16:53:13.436Z,2.77
2017-07-17T16:55:40.904Z,2.70
2017-07-17T16:58:08.445Z,2.17
2017-07-17T17:00:35.921Z,2.23
2017-07-17T17:03:03.392Z,2.50
2017-07-17T17:05:30.885Z,2.87
2017-07-17T17:07:59.106Z,2.60
2017-07-17T17:10:26.578Z,2.03
2017-07-17T17:12:54.069Z,2.70
2017-07-17T17:15:21.857Z,3.00
2017-07-17T17:17:49.329Z,2.70
2017-07-17T17:20:17.078Z,2.50
2017-07-17T17:22:44.548Z,2.80
2017-07-17T17:25:12.901Z,2.30
2017-07-17T17:27:40.397Z,3.00
2017-07-17T17:30:07.882Z,3.07
2017-07-17T17:32:36.125Z,3.60
2017-07-17T17:35:03.622Z,2.73
2017-07-17T17:37:31.930Z,2.93
2017-07-17T17:39:59.401Z,2.40
2017-07-17T17:42:26.935Z,3.03
2017-07-17T17:44:54.409Z,3.00
2017-07-17T17:47:21.881Z,2.37
2017-07-17T17:49:50.037Z,3.30
2017-07-17T17:52:17.514Z,2.70
2017-07-17T17:54:45.005Z,2.90
2017-07-17T17:57:13.269Z,3.90
2017-07-17T17:59:40.742Z,2.83
2017-07-17T18:02:08.982Z,2.90
2017-07-17T18:04:36.473Z,2.47
2017-07-17T18:07:04.713Z,2.80
2017-07-17T18:09:32.188Z,2.90
2017-07-17T18:11:59.681Z,3.17
2017-07-17T18:14:27.157Z,2.97
2017-07-17T18:16:54.641Z,3.03
2017-07-17T18:19:22.132Z,3.27
2017-07-17T18:21:50.369Z,3.77
2017-07-17T18:24:17.838Z,3.80
2017-07-17T18:26:45.329Z,3.50
2017-07-17T18:29:13.566Z,2.93
2017-07-17T18:31:41.041Z,4.00
2017-07-17T18:34:08.547Z,3.33
2017-07-17T18:36:36.017Z,4.00
2017-07-17T18:39:03.497Z,3.70
2017-07-17T18:41:30.994Z,4.33
2017-07-17T18:43:59.229Z,3.87
2017-07-17T18:46:26.698Z,3.57
2017-07-17T18:48:54.196Z,3.70
2017-07-17T18:51:21.666Z,3.70
2017-07-17T18:53:49.137Z,4.17
2017-07-17T18:56:16.630Z,3.63
2017-07-17T18:58:44.109Z,3.03
2017-07-17T19:01:12.367Z,3.10
2017-07-17T19:03:40.692Z,4.07
2017-07-17T19:06:08.170Z,4.50
2017-07-17T19:08:35.666Z,4.27
2017-07-17T19:11:03.933Z,3.20
2017-07-17T19:13:31.433Z,4.40
2017-07-17T19:15:58.919Z,4.10
2017-07-17T19:18:26.409Z,3.17
2017-07-17T19:20:54.696Z,3.83
2017-07-17T19:23:23.133Z,3.53
2017-07-17T19:25:50.638Z,4.93
2017-07-17T19:28:19.366Z,4.10
2017-07-17T19:30:46.846Z,4.50
2017-07-17T19:33:14.341Z,4.20
2017-07-17T19:35:42.601Z,4.20
2017-07-17T19:38:10.838Z,4.70
2017-07-17T19:40:38.329Z,3.93
2017-07-17T19:43:05.798Z,4.60
2017-07-17T19:45:34.043Z,3.93
2017-07-17T19:48:01.542Z,4.53
2017-07-17T19:50:29.027Z,3.77
2017-07-17T19:52:56.497Z,4.07
2017-07-17T19:55:24.083Z,3.87
2017-07-17T19:57:52.363Z,4.47
2017-07-17T20:00:19.826Z,4.87
2017-07-17T20:02:48.085Z,4.00
2017-07-17T20:05:15.561Z,4.87
2017-07-17T20:07:43.797Z,4.57
2017-07-17T20:10:11.295Z,4.50
2017-07-17T20:12:39.717Z,4.30
2017-07-17T20:15:07.188Z,5.43
2017-07-17T20:17:34.677Z,4.00
2017-07-17T20:20:02.150Z,3.97
2017-07-17T20:22:30.389Z,4.13
2017-07-17T20:24:57.886Z,6.43
2017-07-17T20:27:26.133Z,4.00
2017-07-17T20:29:53.601Z,4.33
2017-07-17T20:32:21.094Z,4.13
2017-07-17T20:34:48.573Z,4.50
2017-07-17T20:37:16.045Z,5.17
2017-07-17T20:39:43.792Z,4.97
2017-07-17T20:42:11.266Z,5.23
2017-07-17T20:44:38.737Z,4.13
2017-07-17T20:47:06.465Z,4.20
2017-07-17T20:49:33.941Z,4.40
2017-07-17T20:52:01.420Z,4.57
2017-07-17T20:54:29.727Z,3.73
2017-07-17T20:56:57.958Z,4.13
2017-07-17T20:59:25.429Z,4.60
2017-07-17T21:01:52.922Z,5.53
2017-07-17T21:04:20.395Z,5.70
2017-07-17T21:06:47.870Z,5.53
2017-07-17T21:09:15.385Z,4.80
2017-07-17T21:11:43.621Z,5.37
2017-07-17T21:14:11.099Z,5.10
2017-07-17T21:16:39.369Z,4.57
2017-07-17T21:19:06.840Z,4.40
2017-07-17T21:21:35.222Z,5.30
2017-07-17T21:24:03.483Z,5.40
2017-07-17T21:26:31.722Z,4.37
2017-07-17T21:28:59.198Z,4.57
2017-07-17T21:31:26.685Z,5.37
2017-07-17T21:33:54.921Z,4.83
2017-07-17T21:36:22.394Z,6.37
2017-07-17T21:38:50.116Z,5.60
2017-07-17T21:41:17.881Z,4.60
2017-07-17T21:43:45.353Z,4.70
2017-07-17T21:46:13.262Z,5.30
2017-07-17T21:48:41.500Z,4.97
2017-07-17T21:51:08.977Z,5.03
2017-07-17T21:53:36.465Z,5.80
2017-07-17T21:56:03.938Z,5.17
2017-07-17T21:58:31.410Z,6.40
2017-07-17T22:00:58.909Z,5.70
2017-07-17T22:03:27.204Z,5.63
2017-07-17T22:05:54.690Z,5.70
2017-07-17T22:08:22.182Z,5.00
2017-07-17T22:10:49.666Z,5.33
2017-07-17T22:13:17.902Z,5.03
2017-07-17T22:15:45.665Z,5.40
2017-07-17T22:18:13.138Z,7.00
2017-07-17T22:20:41.398Z,6.30
2017-07-17T22:23:08.889Z,6.47
2017-07-17T22:25:37.134Z,6.80
2017-07-17T22:28:04.671Z,6.43
2017-07-17T22:30:32.170Z,6.40
2017-07-17T22:32:59.645Z,7.20
2017-07-17T22:35:27.885Z,6.60
2017-07-17T22:37:55.377Z,6.13
2017-07-17T22:40:23.613Z,6.07
2017-07-17T22:42:51.085Z,5.87
2017-07-17T22:45:18.577Z,6.00
2017-07-17T22:47:46.813Z,6.07
2017-07-17T22:50:14.550Z,5.80
2017-07-17T22:52:42.469Z,7.07
2017-07-17T22:55:10.714Z,6.20
2017-07-17T22:57:38.185Z,6.53
2017-07-17T23:00:05.686Z,7.17
2017-07-17T23:02:33.174Z,6.40
2017-07-17T23:05:00.661Z,6.17
2017-07-17T23:07:28.164Z,6.03
2017-07-17T23:09:55.641Z,6.27
2017-07-17T23:12:23.110Z,6.37
2017-07-17T23:14:50.602Z,6.60
2017-07-17T23:17:18.842Z,5.70
2017-07-17T23:19:46.317Z,6.30
2017-07-17T23:22:14.128Z,6.50
2017-07-17T23:24:41.609Z,6.63
2017-07-17T23:27:09.082Z,6.10
2017-07-17T23:29:36.574Z,7.00
2017-07-17T23:32:04.814Z,7.00
2017-07-17T23:34:32.286Z,7.33
2017-07-17T23:36:59.777Z,7.30
2017-07-17T23:39:27.321Z,7.80
2017-07-17T23:41:55.557Z,7.30
2017-07-17T23:44:23.050Z,7.40
2017-07-17T23:46:51.289Z,6.77
2017-07-17T23:49:18.761Z,7.60
2017-07-17T23:51:46.257Z,6.87
2017-07-17T23:54:13.733Z,6.67
2017-07-17T23:56:41.211Z,7.40
2017-07-17T23:59:08.717Z,6.30
